This is the latest recevied weather packets stored in our database for station/object HK4RAU-15. If no packets are shown the sender has not sent any weather packets the latest 10 day(s).
| Time | Temp. | Humidity | Pressure | Rain* | Wind** | Luminosity | Snow |
|---|---|---|---|---|---|---|---|
| 1778251414 | 24.44° C | 83% | 1012 hPa | 0 mm | - | - | - |
| 1778251227 | 24.44° C | 83% | 1012 hPa | 0 mm | - | - | - |
| 1778251041 | 24.44° C | 83% | 1012 hPa | 0 mm | - | - | - |
| 1778250859 | 24.44° C | 75% | 1012 hPa | 0 mm | - | - | - |
| 1778250678 | 25° C | 75% | 1012 hPa | 0 mm | - | - | - |
| 1778250495 | 25.56° C | 75% | 1012 hPa | 0 mm | - | - | - |
| 1778250313 | 25.56° C | 75% | 1012 hPa | 0 mm | - | - | - |
| 1778250131 | 25° C | 75% | 1012 hPa | 0 mm | - | - | - |
| 1778249950 | 25.56° C | 75% | 1012 hPa | 0 mm | - | - | - |
| 1778249763 | 25.56° C | 75% | 1012 hPa | 0 mm | - | - | - |
| 1778249575 | 26.11° C | 75% | 1012 hPa | 0 mm | - | - | - |
| 1778249389 | 26.11° C | 75% | 1012 hPa | 0 mm | - | - | - |
| 1778249202 | 26.11° C | 75% | 1012 hPa | 0 mm | - | - | - |
| 1778249021 | 25° C | 81% | 1012 hPa | 0 mm | - | - | - |
| 1778248840 | 26.11° C | 76% | 1012 hPa | 0 mm | - | - | - |
| 1778248658 | 26.11° C | 76% | 1012 hPa | 0 mm | - | - | - |
| 1778248477 | 25° C | 81% | 1012 hPa | 0 mm | - | - | - |
| 1778248296 | 25.56° C | 81% | 1012 hPa | 0 mm | - | - | - |
| 1778248115 | 25.56° C | 81% | 1012 hPa | 0 mm | - | - | - |
| 1778247927 | 25.56° C | 81% | 1012 hPa | 0 mm | - | - | - |
| 1778247553 | 26.11° C | 81% | 1012 hPa | 0 mm | - | - | - |
| 1778247367 | 22.78° C | 92% | 1012 hPa | 0 mm | - | - | - |
| 1778247175 | 22.78° C | 92% | 1012 hPa | 0 mm | - | - | - |
| 1778246994 | 22.78° C | 92% | 1012 hPa | 0 mm | - | - | - |
| 1778246806 | 22.22° C | 92% | 1012 hPa | 0 mm | - | - | - |
* Rain latest hour (hover to see other rain measurements)
** Current wind speed in m/s (hover to see current wind gust speed)